sensor_id;sensor_type;location;lat;lon;timestamp;pressure;altitude;pressure_sealevel;temperature;humidity
11223;BME280;5668;52.012;8.724;2022-10-19T00:01:08;101424.41;;;13.81;79.39
11223;BME280;5668;52.012;8.724;2022-10-19T00:03:38;101427.03;;;13.81;79.04
11223;BME280;5668;52.012;8.724;2022-10-19T00:06:13;101415.84;;;13.79;78.88
11223;BME280;5668;52.012;8.724;2022-10-19T00:08:41;101411.63;;;13.76;78.98
11223;BME280;5668;52.012;8.724;2022-10-19T00:11:09;101419.59;;;13.75;78.69
11223;BME280;5668;52.012;8.724;2022-10-19T00:13:37;101412.78;;;13.72;78.83
11223;BME280;5668;52.012;8.724;2022-10-19T00:16:08;101421.13;;;13.65;77.34
11223;BME280;5668;52.012;8.724;2022-10-19T00:18:37;101424.06;;;13.46;77.62
11223;BME280;5668;52.012;8.724;2022-10-19T00:21:05;101433.69;;;13.45;78.86
11223;BME280;5668;52.012;8.724;2022-10-19T00:23:33;101435.34;;;13.46;79.54
11223;BME280;5668;52.012;8.724;2022-10-19T00:26:00;101427.50;;;13.46;79.95
11223;BME280;5668;52.012;8.724;2022-10-19T00:28:28;101423.88;;;13.49;79.72
11223;BME280;5668;52.012;8.724;2022-10-19T00:30:55;101422.84;;;13.51;79.49
11223;BME280;5668;52.012;8.724;2022-10-19T00:33:22;101422.03;;;13.51;79.37
11223;BME280;5668;52.012;8.724;2022-10-19T00:35:52;101405.50;;;13.50;79.11
11223;BME280;5668;52.012;8.724;2022-10-19T00:38:20;101417.81;;;13.48;79.27
11223;BME280;5668;52.012;8.724;2022-10-19T00:40:48;101413.44;;;13.49;79.36
11223;BME280;5668;52.012;8.724;2022-10-19T00:43:17;101416.13;;;13.47;79.50
11223;BME280;5668;52.012;8.724;2022-10-19T00:45:45;101423.97;;;13.47;79.60
11223;BME280;5668;52.012;8.724;2022-10-19T00:48:16;101428.47;;;13.45;79.36
11223;BME280;5668;52.012;8.724;2022-10-19T00:50:45;101427.72;;;13.43;79.30
11223;BME280;5668;52.012;8.724;2022-10-19T00:53:15;101424.28;;;13.43;79.14
11223;BME280;5668;52.012;8.724;2022-10-19T00:55:43;101429.69;;;13.40;78.94
11223;BME280;5668;52.012;8.724;2022-10-19T00:58:11;101440.34;;;13.37;78.78
11223;BME280;5668;52.012;8.724;2022-10-19T01:00:39;101436.91;;;13.36;79.05
11223;BME280;5668;52.012;8.724;2022-10-19T01:03:07;101441.38;;;13.34;79.07
11223;BME280;5668;52.012;8.724;2022-10-19T01:05:36;101437.81;;;13.35;78.36
11223;BME280;5668;52.012;8.724;2022-10-19T01:08:03;101439.78;;;13.32;78.96
11223;BME280;5668;52.012;8.724;2022-10-19T01:10:41;101433.84;;;13.30;78.55
11223;BME280;5668;52.012;8.724;2022-10-19T01:13:21;101443.44;;;13.29;78.63
11223;BME280;5668;52.012;8.724;2022-10-19T01:15:58;101441.00;;;13.26;78.58
11223;BME280;5668;52.012;8.724;2022-10-19T01:18:35;101431.59;;;13.24;78.48
11223;BME280;5668;52.012;8.724;2022-10-19T01:21:17;101429.28;;;13.19;78.61
11223;BME280;5668;52.012;8.724;2022-10-19T01:24:07;101426.03;;;13.15;78.73
11223;BME280;5668;52.012;8.724;2022-10-19T01:27:08;101425.19;;;13.15;78.79
11223;BME280;5668;52.012;8.724;2022-10-19T01:29:59;101418.44;;;13.11;78.73
11223;BME280;5668;52.012;8.724;2022-10-19T01:32:33;101425.44;;;13.10;78.40
11223;BME280;5668;52.012;8.724;2022-10-19T01:35:08;101430.13;;;13.05;76.61
11223;BME280;5668;52.012;8.724;2022-10-19T01:37:40;101431.13;;;13.03;77.36
11223;BME280;5668;52.012;8.724;2022-10-19T01:40:17;101430.59;;;12.98;77.24
11223;BME280;5668;52.012;8.724;2022-10-19T01:42:52;101435.34;;;12.91;76.86
11223;BME280;5668;52.012;8.724;2022-10-19T01:45:27;101442.50;;;12.88;77.44
11223;BME280;5668;52.012;8.724;2022-10-19T01:48:01;101447.72;;;12.88;78.10
11223;BME280;5668;52.012;8.724;2022-10-19T01:50:32;101446.03;;;12.87;77.52
11223;BME280;5668;52.012;8.724;2022-10-19T01:53:04;101439.06;;;12.87;77.15
11223;BME280;5668;52.012;8.724;2022-10-19T01:55:33;101441.03;;;12.84;77.79
11223;BME280;5668;52.012;8.724;2022-10-19T01:58:04;101432.44;;;12.82;77.15
11223;BME280;5668;52.012;8.724;2022-10-19T02:00:36;101431.63;;;12.81;76.98
11223;BME280;5668;52.012;8.724;2022-10-19T02:03:05;101433.47;;;12.79;77.13
11223;BME280;5668;52.012;8.724;2022-10-19T02:05:33;101432.75;;;12.77;77.15
11223;BME280;5668;52.012;8.724;2022-10-19T02:08:05;101431.16;;;12.74;77.58
11223;BME280;5668;52.012;8.724;2022-10-19T02:10:37;101432.06;;;12.73;77.60
11223;BME280;5668;52.012;8.724;2022-10-19T02:13:07;101431.31;;;12.71;77.13
11223;BME280;5668;52.012;8.724;2022-10-19T02:15:38;101429.84;;;12.67;77.24
11223;BME280;5668;52.012;8.724;2022-10-19T02:18:08;101427.34;;;12.66;77.71
11223;BME280;5668;52.012;8.724;2022-10-19T02:20:36;101428.34;;;12.63;77.31
11223;BME280;5668;52.012;8.724;2022-10-19T02:23:04;101430.03;;;12.64;77.23
11223;BME280;5668;52.012;8.724;2022-10-19T02:25:31;101426.56;;;12.64;77.02
11223;BME280;5668;52.012;8.724;2022-10-19T02:27:59;101427.72;;;12.60;77.11
11223;BME280;5668;52.012;8.724;2022-10-19T02:30:27;101430.47;;;12.57;77.39
11223;BME280;5668;52.012;8.724;2022-10-19T02:32:55;101435.81;;;12.55;77.24
11223;BME280;5668;52.012;8.724;2022-10-19T02:35:22;101431.63;;;12.53;76.94
11223;BME280;5668;52.012;8.724;2022-10-19T02:37:50;101433.56;;;12.49;77.01
11223;BME280;5668;52.012;8.724;2022-10-19T02:40:18;101434.47;;;12.48;77.19
11223;BME280;5668;52.012;8.724;2022-10-19T02:42:51;101432.16;;;12.44;76.84
11223;BME280;5668;52.012;8.724;2022-10-19T02:45:23;101434.94;;;12.40;77.29
11223;BME280;5668;52.012;8.724;2022-10-19T02:47:56;101435.88;;;12.39;76.92
11223;BME280;5668;52.012;8.724;2022-10-19T02:50:24;101436.91;;;12.37;76.71
11223;BME280;5668;52.012;8.724;2022-10-19T02:52:51;101436.97;;;12.35;76.95
11223;BME280;5668;52.012;8.724;2022-10-19T02:55:19;101435.22;;;12.36;77.29
11223;BME280;5668;52.012;8.724;2022-10-19T02:57:46;101431.00;;;12.33;76.72
11223;BME280;5668;52.012;8.724;2022-10-19T03:02:49;101433.91;;;12.29;75.59
11223;BME280;5668;52.012;8.724;2022-10-19T03:05:17;101433.03;;;12.14;76.14
11223;BME280;5668;52.012;8.724;2022-10-19T03:07:44;101429.75;;;12.11;76.32
11223;BME280;5668;52.012;8.724;2022-10-19T03:10:12;101425.09;;;12.01;76.22
11223;BME280;5668;52.012;8.724;2022-10-19T03:12:40;101430.31;;;12.01;76.68
11223;BME280;5668;52.012;8.724;2022-10-19T03:15:08;101430.00;;;11.92;76.58
11223;BME280;5668;52.012;8.724;2022-10-19T03:17:36;101418.47;;;12.40;75.43
11223;BME280;5668;52.012;8.724;2022-10-19T03:20:07;101421.25;;;12.23;76.00
11223;BME280;5668;52.012;8.724;2022-10-19T03:22:39;101413.84;;;12.01;75.31
11223;BME280;5668;52.012;8.724;2022-10-19T03:25:06;101432.44;;;11.95;76.88
11223;BME280;5668;52.012;8.724;2022-10-19T03:27:34;101420.78;;;11.86;75.69
11223;BME280;5668;52.012;8.724;2022-10-19T03:30:01;101414.88;;;11.67;77.12
11223;BME280;5668;52.012;8.724;2022-10-19T03:32:28;101423.81;;;11.63;78.75
11223;BME280;5668;52.012;8.724;2022-10-19T03:34:55;101420.44;;;11.61;78.04
11223;BME280;5668;52.012;8.724;2022-10-19T03:37:22;101435.16;;;11.62;78.50
11223;BME280;5668;52.012;8.724;2022-10-19T03:39:51;101429.84;;;11.63;78.86
11223;BME280;5668;52.012;8.724;2022-10-19T03:42:18;101427.91;;;12.13;77.59
11223;BME280;5668;52.012;8.724;2022-10-19T03:44:45;101432.00;;;12.02;78.00
11223;BME280;5668;52.012;8.724;2022-10-19T03:47:12;101433.84;;;12.00;78.27
11223;BME280;5668;52.012;8.724;2022-10-19T03:49:39;101439.91;;;12.01;78.50
11223;BME280;5668;52.012;8.724;2022-10-19T03:52:08;101430.56;;;11.97;78.16
11223;BME280;5668;52.012;8.724;2022-10-19T03:54:35;101429.72;;;11.96;78.29
11223;BME280;5668;52.012;8.724;2022-10-19T03:57:05;101434.69;;;12.01;78.53
11223;BME280;5668;52.012;8.724;2022-10-19T03:59:32;101434.19;;;11.94;77.93
11223;BME280;5668;52.012;8.724;2022-10-19T04:01:59;101436.22;;;11.89;78.86
11223;BME280;5668;52.012;8.724;2022-10-19T04:04:26;101434.38;;;11.91;79.07
11223;BME280;5668;52.012;8.724;2022-10-19T04:06:53;101428.31;;;11.91;78.48
11223;BME280;5668;52.012;8.724;2022-10-19T04:09:21;101434.38;;;11.91;79.48
11223;BME280;5668;52.012;8.724;2022-10-19T04:11:49;101429.91;;;11.93;79.67
11223;BME280;5668;52.012;8.724;2022-10-19T04:14:19;101433.38;;;11.94;79.86
11223;BME280;5668;52.012;8.724;2022-10-19T04:16:47;101431.41;;;11.97;79.89
11223;BME280;5668;52.012;8.724;2022-10-19T04:19:15;101438.13;;;12.01;78.24
11223;BME280;5668;52.012;8.724;2022-10-19T04:21:42;101438.28;;;11.98;79.33
11223;BME280;5668;52.012;8.724;2022-10-19T04:24:12;101433.53;;;11.91;79.54
11223;BME280;5668;52.012;8.724;2022-10-19T04:26:41;101433.53;;;11.91;80.37
11223;BME280;5668;52.012;8.724;2022-10-19T04:29:09;101432.53;;;11.93;80.52
11223;BME280;5668;52.012;8.724;2022-10-19T04:31:38;101434.75;;;11.99;79.44
11223;BME280;5668;52.012;8.724;2022-10-19T04:34:07;101429.31;;;11.88;78.77
11223;BME280;5668;52.012;8.724;2022-10-19T04:36:34;101430.59;;;11.81;79.63
11223;BME280;5668;52.012;8.724;2022-10-19T04:39:01;101435.81;;;11.81;80.07
11223;BME280;5668;52.012;8.724;2022-10-19T04:41:29;101423.63;;;11.82;79.47
11223;BME280;5668;52.012;8.724;2022-10-19T04:43:57;101440.56;;;11.73;80.56
11223;BME280;5668;52.012;8.724;2022-10-19T04:46:26;101430.16;;;11.73;80.79
11223;BME280;5668;52.012;8.724;2022-10-19T04:48:57;101431.88;;;11.74;81.62
11223;BME280;5668;52.012;8.724;2022-10-19T04:51:25;101429.94;;;11.78;81.80
11223;BME280;5668;52.012;8.724;2022-10-19T04:53:52;101433.41;;;11.78;81.62
11223;BME280;5668;52.012;8.724;2022-10-19T04:56:23;101433.97;;;11.83;81.47
11223;BME280;5668;52.012;8.724;2022-10-19T04:58:54;101433.97;;;11.83;81.10
11223;BME280;5668;52.012;8.724;2022-10-19T05:01:23;101438.41;;;11.81;81.06
11223;BME280;5668;52.012;8.724;2022-10-19T05:03:53;101438.41;;;11.81;81.54
11223;BME280;5668;52.012;8.724;2022-10-19T05:06:22;101435.72;;;11.83;82.15
11223;BME280;5668;52.012;8.724;2022-10-19T05:08:50;101445.91;;;11.87;81.88
11223;BME280;5668;52.012;8.724;2022-10-19T05:11:18;101443.38;;;11.86;81.76
11223;BME280;5668;52.012;8.724;2022-10-19T05:13:46;101442.25;;;11.90;82.04
11223;BME280;5668;52.012;8.724;2022-10-19T05:16:15;101436.88;;;11.93;81.41
11223;BME280;5668;52.012;8.724;2022-10-19T05:18:46;101433.81;;;11.86;81.74
11223;BME280;5668;52.012;8.724;2022-10-19T05:21:14;101433.41;;;11.78;81.93
11223;BME280;5668;52.012;8.724;2022-10-19T05:23:43;101430.78;;;11.78;82.05
11223;BME280;5668;52.012;8.724;2022-10-19T05:26:12;101430.72;;;11.80;82.97
11223;BME280;5668;52.012;8.724;2022-10-19T05:28:40;101428.84;;;11.82;82.89
11223;BME280;5668;52.012;8.724;2022-10-19T05:31:09;101424.31;;;11.85;82.95
11223;BME280;5668;52.012;8.724;2022-10-19T05:33:37;101425.16;;;11.86;82.81
11223;BME280;5668;52.012;8.724;2022-10-19T05:36:16;101426.72;;;11.88;82.71
11223;BME280;5668;52.012;8.724;2022-10-19T05:38:47;101423.94;;;11.91;82.87
11223;BME280;5668;52.012;8.724;2022-10-19T05:41:15;101422.94;;;11.94;83.39
11223;BME280;5668;52.012;8.724;2022-10-19T05:43:42;101422.81;;;11.95;83.13
11223;BME280;5668;52.012;8.724;2022-10-19T05:46:11;101419.22;;;11.98;83.55
11223;BME280;5668;52.012;8.724;2022-10-19T05:48:40;101418.97;;;12.02;82.06
11223;BME280;5668;52.012;8.724;2022-10-19T05:51:09;101414.38;;;11.92;82.34
11223;BME280;5668;52.012;8.724;2022-10-19T05:53:37;101416.03;;;11.93;82.96
11223;BME280;5668;52.012;8.724;2022-10-19T05:56:07;101415.44;;;11.88;82.25
11223;BME280;5668;52.012;8.724;2022-10-19T05:58:35;101419.44;;;11.79;83.03
11223;BME280;5668;52.012;8.724;2022-10-19T06:01:03;101415.88;;;11.80;83.38
11223;BME280;5668;52.012;8.724;2022-10-19T06:03:30;101420.28;;;11.80;83.15
11223;BME280;5668;52.012;8.724;2022-10-19T06:05:57;101420.44;;;11.77;83.97
11223;BME280;5668;52.012;8.724;2022-10-19T06:08:28;101422.06;;;11.79;84.16
11223;BME280;5668;52.012;8.724;2022-10-19T06:11:05;101411.78;;;11.76;83.18
11223;BME280;5668;52.012;8.724;2022-10-19T06:13:32;101416.94;;;11.78;83.74
11223;BME280;5668;52.012;8.724;2022-10-19T06:16:00;101419.44;;;11.79;84.05
11223;BME280;5668;52.012;8.724;2022-10-19T06:18:27;101417.94;;;11.75;84.20
11223;BME280;5668;52.012;8.724;2022-10-19T06:20:54;101429.88;;;11.79;84.52
11223;BME280;5668;52.012;8.724;2022-10-19T06:23:21;101420.28;;;11.80;84.83
11223;BME280;5668;52.012;8.724;2022-10-19T06:25:48;101418.59;;;11.79;84.17
11223;BME280;5668;52.012;8.724;2022-10-19T06:28:17;101428.84;;;11.82;84.58
11223;BME280;5668;52.012;8.724;2022-10-19T06:30:44;101427.00;;;11.84;84.35
11223;BME280;5668;52.012;8.724;2022-10-19T06:33:11;101429.31;;;11.88;84.57
11223;BME280;5668;52.012;8.724;2022-10-19T06:35:38;101430.28;;;11.87;84.85
11223;BME280;5668;52.012;8.724;2022-10-19T06:38:07;101443.09;;;11.90;85.08
11223;BME280;5668;52.012;8.724;2022-10-19T06:40:34;101448.16;;;11.93;85.07
11223;BME280;5668;52.012;8.724;2022-10-19T06:43:02;101450.56;;;11.96;85.23
11223;BME280;5668;52.012;8.724;2022-10-19T06:45:30;101452.06;;;12.00;84.92
11223;BME280;5668;52.012;8.724;2022-10-19T06:47:59;101453.66;;;12.03;85.54
11223;BME280;5668;52.012;8.724;2022-10-19T06:50:26;101447.44;;;12.06;85.10
11223;BME280;5668;52.012;8.724;2022-10-19T06:52:53;101455.16;;;12.07;85.52
11223;BME280;5668;52.012;8.724;2022-10-19T06:55:20;101450.78;;;12.08;85.64
11223;BME280;5668;52.012;8.724;2022-10-19T06:57:47;101455.16;;;12.07;85.29
11223;BME280;5668;52.012;8.724;2022-10-19T07:00:15;101453.31;;;12.09;85.49
11223;BME280;5668;52.012;8.724;2022-10-19T07:02:43;101454.16;;;12.10;84.79
11223;BME280;5668;52.012;8.724;2022-10-19T07:05:11;101453.41;;;12.08;84.54
11223;BME280;5668;52.012;8.724;2022-10-19T07:07:38;101453.75;;;12.01;85.43
11223;BME280;5668;52.012;8.724;2022-10-19T07:10:06;101451.88;;;12.03;85.94
11223;BME280;5668;52.012;8.724;2022-10-19T07:12:35;101450.03;;;12.06;85.63
11223;BME280;5668;52.012;8.724;2022-10-19T07:15:02;101455.81;;;12.11;85.32
11223;BME280;5668;52.012;8.724;2022-10-19T07:17:29;101448.28;;;12.06;86.46
11223;BME280;5668;52.012;8.724;2022-10-19T07:19:58;101454.88;;;12.12;86.48
11223;BME280;5668;52.012;8.724;2022-10-19T07:22:25;101459.09;;;12.14;86.59
11223;BME280;5668;52.012;8.724;2022-10-19T07:24:52;101452.13;;;12.15;86.52
11223;BME280;5668;52.012;8.724;2022-10-19T07:27:19;101455.09;;;12.09;87.01
11223;BME280;5668;52.012;8.724;2022-10-19T07:29:46;101467.06;;;12.11;87.00
11223;BME280;5668;52.012;8.724;2022-10-19T07:32:13;101464.38;;;12.13;87.09
11223;BME280;5668;52.012;8.724;2022-10-19T07:34:40;101460.03;;;12.13;87.73
11223;BME280;5668;52.012;8.724;2022-10-19T07:37:09;101460.50;;;12.20;88.09
11223;BME280;5668;52.012;8.724;2022-10-19T07:39:36;101458.66;;;12.22;88.36
11223;BME280;5668;52.012;8.724;2022-10-19T07:42:03;101463.50;;;12.28;87.94
11223;BME280;5668;52.012;8.724;2022-10-19T07:44:31;101460.72;;;12.31;88.73
11223;BME280;5668;52.012;8.724;2022-10-19T07:46:58;101455.50;;;12.31;88.43
11223;BME280;5668;52.012;8.724;2022-10-19T07:49:25;101461.28;;;12.36;89.40
11223;BME280;5668;52.012;8.724;2022-10-19T07:51:52;101461.97;;;12.39;88.93
11223;BME280;5668;52.012;8.724;2022-10-19T07:54:22;101463.34;;;12.45;88.79
11223;BME280;5668;52.012;8.724;2022-10-19T07:56:49;101464.28;;;12.44;89.29
11223;BME280;5668;52.012;8.724;2022-10-19T07:59:16;101453.78;;;12.46;89.87
11223;BME280;5668;52.012;8.724;2022-10-19T08:01:43;101447.44;;;12.50;89.58
11223;BME280;5668;52.012;8.724;2022-10-19T08:04:12;101446.13;;;12.57;89.60
11223;BME280;5668;52.012;8.724;2022-10-19T08:06:39;101452.94;;;12.59;88.96
11223;BME280;5668;52.012;8.724;2022-10-19T08:09:06;101454.06;;;12.55;89.64
11223;BME280;5668;52.012;8.724;2022-10-19T08:11:35;101455.47;;;12.61;90.25
11223;BME280;5668;52.012;8.724;2022-10-19T08:14:03;101454.25;;;12.66;90.42
11223;BME280;5668;52.012;8.724;2022-10-19T08:16:32;101452.41;;;12.68;89.92
11223;BME280;5668;52.012;8.724;2022-10-19T08:19:04;101450.34;;;12.73;90.31
11223;BME280;5668;52.012;8.724;2022-10-19T08:21:32;101457.06;;;12.77;89.96
11223;BME280;5668;52.012;8.724;2022-10-19T08:23:59;101463.94;;;12.78;90.22
11223;BME280;5668;52.012;8.724;2022-10-19T08:26:28;101469.16;;;12.78;90.26
11223;BME280;5668;52.012;8.724;2022-10-19T08:29:00;101458.38;;;12.85;90.69
11223;BME280;5668;52.012;8.724;2022-10-19T08:31:28;101462.53;;;12.87;91.08
11223;BME280;5668;52.012;8.724;2022-10-19T08:33:55;101455.47;;;12.89;91.11
11223;BME280;5668;52.012;8.724;2022-10-19T08:36:22;101454.44;;;12.92;91.49
11223;BME280;5668;52.012;8.724;2022-10-19T08:38:50;101451.63;;;12.95;91.23
11223;BME280;5668;52.012;8.724;2022-10-19T08:41:22;101459.28;;;12.98;91.76
11223;BME280;5668;52.012;8.724;2022-10-19T08:44:05;101450.25;;;13.03;91.60
11223;BME280;5668;52.012;8.724;2022-10-19T08:46:40;101461.34;;;13.07;91.83
11223;BME280;5668;52.012;8.724;2022-10-19T08:49:14;101460.19;;;13.11;92.28
11223;BME280;5668;52.012;8.724;2022-10-19T08:51:45;101452.94;;;13.16;91.92
11223;BME280;5668;52.012;8.724;2022-10-19T08:54:16;101456.13;;;13.21;92.15
11223;BME280;5668;52.012;8.724;2022-10-19T08:56:56;101449.69;;;13.27;92.54
11223;BME280;5668;52.012;8.724;2022-10-19T08:59:35;101449.38;;;13.31;92.50
11223;BME280;5668;52.012;8.724;2022-10-19T09:02:13;101451.63;;;13.37;92.76
11223;BME280;5668;52.012;8.724;2022-10-19T09:04:45;101443.59;;;13.40;93.28
11223;BME280;5668;52.012;8.724;2022-10-19T09:07:22;101447.56;;;13.46;93.22
11223;BME280;5668;52.012;8.724;2022-10-19T09:09:55;101443.94;;;13.48;93.30
11223;BME280;5668;52.012;8.724;2022-10-19T09:12:33;101438.53;;;13.51;93.12
11223;BME280;5668;52.012;8.724;2022-10-19T09:15:09;101442.50;;;13.57;93.38
11223;BME280;5668;52.012;8.724;2022-10-19T09:17:37;101438.88;;;13.60;93.45
11223;BME280;5668;52.012;8.724;2022-10-19T09:20:15;101437.72;;;13.64;93.34
11223;BME280;5668;52.012;8.724;2022-10-19T09:22:44;101431.38;;;13.68;93.62
11223;BME280;5668;52.012;8.724;2022-10-19T09:25:14;101442.38;;;13.73;93.29
11223;BME280;5668;52.012;8.724;2022-10-19T09:27:46;101432.53;;;13.76;93.06
11223;BME280;5668;52.012;8.724;2022-10-19T09:30:18;101447.00;;;13.82;92.50
11223;BME280;5668;52.012;8.724;2022-10-19T09:32:47;101447.63;;;13.85;92.24
11223;BME280;5668;52.012;8.724;2022-10-19T09:35:22;101447.34;;;13.90;92.13
11223;BME280;5668;52.012;8.724;2022-10-19T09:37:50;101447.13;;;13.93;92.09
11223;BME280;5668;52.012;8.724;2022-10-19T09:40:24;101452.16;;;13.96;91.26
11223;BME280;5668;52.012;8.724;2022-10-19T09:42:52;101445.88;;;13.99;90.99
11223;BME280;5668;52.012;8.724;2022-10-19T09:45:34;101450.81;;;14.03;89.94
11223;BME280;5668;52.012;8.724;2022-10-19T09:48:03;101443.72;;;14.05;88.94
11223;BME280;5668;52.012;8.724;2022-10-19T09:50:42;101440.03;;;14.08;88.22
11223;BME280;5668;52.012;8.724;2022-10-19T09:53:17;101435.47;;;14.11;87.31
11223;BME280;5668;52.012;8.724;2022-10-19T09:55:50;101436.31;;;14.12;85.94
11223;BME280;5668;52.012;8.724;2022-10-19T09:58:19;101442.91;;;14.17;83.71
11223;BME280;5668;52.012;8.724;2022-10-19T10:00:49;101439.13;;;14.21;83.37
11223;BME280;5668;52.012;8.724;2022-10-19T10:03:26;101444.34;;;14.21;83.35
11223;BME280;5668;52.012;8.724;2022-10-19T10:05:54;101444.16;;;14.24;83.11
11223;BME280;5668;52.012;8.724;2022-10-19T10:08:24;101448.34;;;14.27;83.36
11223;BME280;5668;52.012;8.724;2022-10-19T10:11:03;101440.09;;;14.33;82.87
11223;BME280;5668;52.012;8.724;2022-10-19T10:13:35;101445.94;;;14.37;82.03
11223;BME280;5668;52.012;8.724;2022-10-19T10:16:07;101437.25;;;14.36;81.60
11223;BME280;5668;52.012;8.724;2022-10-19T10:18:37;101432.88;;;14.37;81.16
11223;BME280;5668;52.012;8.724;2022-10-19T10:21:13;101428.31;;;14.40;81.16
11223;BME280;5668;52.012;8.724;2022-10-19T10:23:59;101437.59;;;14.44;80.65
11223;BME280;5668;52.012;8.724;2022-10-19T10:26:27;101439.19;;;14.47;80.59
11223;BME280;5668;52.012;8.724;2022-10-19T10:28:54;101438.16;;;14.49;79.72
11223;BME280;5668;52.012;8.724;2022-10-19T10:31:25;101445.91;;;14.51;79.53
11223;BME280;5668;52.012;8.724;2022-10-19T10:33:55;101445.69;;;14.54;78.20
11223;BME280;5668;52.012;8.724;2022-10-19T10:36:27;101449.13;;;14.54;77.60
11223;BME280;5668;52.012;8.724;2022-10-19T10:39:00;101453.53;;;14.54;76.50
11223;BME280;5668;52.012;8.724;2022-10-19T10:41:34;101452.59;;;14.55;75.79
11223;BME280;5668;52.012;8.724;2022-10-19T10:44:07;101452.59;;;14.55;75.75
11223;BME280;5668;52.012;8.724;2022-10-19T10:46:48;101451.53;;;14.57;75.33
11223;BME280;5668;52.012;8.724;2022-10-19T10:49:20;101447.88;;;14.60;76.29
11223;BME280;5668;52.012;8.724;2022-10-19T10:51:51;101440.66;;;14.63;76.04
11223;BME280;5668;52.012;8.724;2022-10-19T10:54:22;101432.72;;;14.65;76.03
11223;BME280;5668;52.012;8.724;2022-10-19T10:57:09;101429.97;;;14.66;75.81
11223;BME280;5668;52.012;8.724;2022-10-19T10:59:46;101428.09;;;14.68;75.10
11223;BME280;5668;52.012;8.724;2022-10-19T11:02:32;101422.84;;;14.68;74.23
11223;BME280;5668;52.012;8.724;2022-10-19T11:05:05;101420.34;;;14.67;74.01
11223;BME280;5668;52.012;8.724;2022-10-19T11:07:33;101418.78;;;14.64;73.61
11223;BME280;5668;52.012;8.724;2022-10-19T11:10:09;101416.03;;;14.66;73.07
11223;BME280;5668;52.012;8.724;2022-10-19T11:12:42;101400.47;;;14.64;72.77
11223;BME280;5668;52.012;8.724;2022-10-19T11:15:18;101401.31;;;14.65;72.70
11223;BME280;5668;52.012;8.724;2022-10-19T11:17:57;101392.91;;;14.85;71.65
11223;BME280;5668;52.012;8.724;2022-10-19T11:20:29;101391.41;;;14.81;71.47
11223;BME280;5668;52.012;8.724;2022-10-19T11:23:06;101385.97;;;14.84;71.42
11223;BME280;5668;52.012;8.724;2022-10-19T11:25:49;101387.75;;;14.84;71.57
11223;BME280;5668;52.012;8.724;2022-10-19T11:28:29;101382.44;;;14.85;71.35
11223;BME280;5668;52.012;8.724;2022-10-19T11:31:05;101378.22;;;14.83;70.54
11223;BME280;5668;52.012;8.724;2022-10-19T11:33:45;101373.84;;;14.83;70.20
11223;BME280;5668;52.012;8.724;2022-10-19T11:36:29;101377.94;;;14.87;70.05
11223;BME280;5668;52.012;8.724;2022-10-19T11:39:16;101366.53;;;14.88;70.54
11223;BME280;5668;52.012;8.724;2022-10-19T11:41:53;101368.16;;;14.89;70.69
11223;BME280;5668;52.012;8.724;2022-10-19T11:44:39;101371.53;;;14.91;70.77
11223;BME280;5668;52.012;8.724;2022-10-19T11:47:28;101364.41;;;14.93;71.37
11223;BME280;5668;52.012;8.724;2022-10-19T11:50:11;101360.00;;;14.94;71.02
11223;BME280;5668;52.012;8.724;2022-10-19T11:52:49;101357.50;;;14.92;71.07
11223;BME280;5668;52.012;8.724;2022-10-19T11:55:34;101353.00;;;14.94;70.99
11223;BME280;5668;52.012;8.724;2022-10-19T11:58:11;101353.09;;;14.93;71.62
11223;BME280;5668;52.012;8.724;2022-10-19T12:00:49;101340.84;;;14.93;71.26
11223;BME280;5668;52.012;8.724;2022-10-19T12:03:43;101341.56;;;14.95;70.91
11223;BME280;5668;52.012;8.724;2022-10-19T12:06:22;101338.97;;;14.95;70.16
11223;BME280;5668;52.012;8.724;2022-10-19T12:09:01;101341.44;;;14.97;70.13
11223;BME280;5668;52.012;8.724;2022-10-19T12:11:42;101328.25;;;14.98;69.83
11223;BME280;5668;52.012;8.724;2022-10-19T12:14:14;101332.75;;;14.96;69.79
11223;BME280;5668;52.012;8.724;2022-10-19T12:16:46;101325.75;;;14.97;70.09
11223;BME280;5668;52.012;8.724;2022-10-19T12:19:17;101326.47;;;14.99;69.82
11223;BME280;5668;52.012;8.724;2022-10-19T12:21:48;101328.34;;;14.97;69.74
11223;BME280;5668;52.012;8.724;2022-10-19T12:24:19;101329.09;;;14.99;69.68
11223;BME280;5668;52.012;8.724;2022-10-19T12:26:49;101317.66;;;15.00;69.41
11223;BME280;5668;52.012;8.724;2022-10-19T12:29:20;101321.13;;;15.00;69.85
11223;BME280;5668;52.012;8.724;2022-10-19T12:31:49;101317.47;;;15.03;69.75
11223;BME280;5668;52.012;8.724;2022-10-19T12:34:25;101305.91;;;15.05;69.83
11223;BME280;5668;52.012;8.724;2022-10-19T12:37:04;101307.59;;;15.06;68.95
11223;BME280;5668;52.012;8.724;2022-10-19T12:39:40;101302.34;;;15.06;69.46
11223;BME280;5668;52.012;8.724;2022-10-19T12:42:15;101302.34;;;15.06;69.71
11223;BME280;5668;52.012;8.724;2022-10-19T12:44:59;101295.34;;;15.07;69.68
11223;BME280;5668;52.012;8.724;2022-10-19T12:47:28;101291.88;;;15.06;69.63
11223;BME280;5668;52.012;8.724;2022-10-19T12:49:56;101284.03;;;15.06;69.50
11223;BME280;5668;52.012;8.724;2022-10-19T12:52:42;101282.34;;;15.05;69.30
11223;BME280;5668;52.012;8.724;2022-10-19T12:55:25;101282.47;;;15.04;69.48
11223;BME280;5668;52.012;8.724;2022-10-19T12:57:59;101282.25;;;15.07;69.46
11223;BME280;5668;52.012;8.724;2022-10-19T13:00:28;101273.44;;;15.08;68.67
11223;BME280;5668;52.012;8.724;2022-10-19T13:02:58;101268.31;;;15.06;69.02
11223;BME280;5668;52.012;8.724;2022-10-19T13:05:28;101265.50;;;15.09;68.91
11223;BME280;5668;52.012;8.724;2022-10-19T13:08:00;101261.94;;;15.10;70.01
11223;BME280;5668;52.012;8.724;2022-10-19T13:10:28;101261.78;;;15.12;69.75
11223;BME280;5668;52.012;8.724;2022-10-19T13:12:57;101260.00;;;15.13;69.24
11223;BME280;5668;52.012;8.724;2022-10-19T13:15:54;101261.09;;;15.10;69.32
11223;BME280;5668;52.012;8.724;2022-10-19T13:21:52;101252.03;;;15.14;69.97
11223;BME280;5668;52.012;8.724;2022-10-19T13:24:26;101242.06;;;15.19;70.78
11223;BME280;5668;52.012;8.724;2022-10-19T13:30:05;101237.53;;;15.21;69.91